createdAt,value
2018-03-31T00:01:51.205Z,77.50
2018-03-31T00:04:18.968Z,77.40
2018-03-31T00:06:46.721Z,77.60
2018-03-31T00:09:14.474Z,77.60
2018-03-31T00:11:42.225Z,78.00
2018-03-31T00:14:10.736Z,78.40
2018-03-31T00:16:38.497Z,78.40
2018-03-31T00:19:06.272Z,78.40
2018-03-31T00:21:34.034Z,78.40
2018-03-31T00:24:01.789Z,78.40
2018-03-31T00:26:29.546Z,78.40
2018-03-31T00:28:57.307Z,78.50
2018-03-31T00:31:25.095Z,78.40
2018-03-31T00:33:52.849Z,78.00
2018-03-31T00:36:20.605Z,78.30
2018-03-31T00:38:48.379Z,78.20
2018-03-31T00:41:16.157Z,78.00
2018-03-31T00:43:44.133Z,78.30
2018-03-31T00:46:11.769Z,78.50
2018-03-31T00:48:39.521Z,78.80
2018-03-31T00:51:07.277Z,78.80
2018-03-31T00:53:35.033Z,79.00
2018-03-31T00:56:02.823Z,79.10
2018-03-31T00:58:30.579Z,78.90
2018-03-31T01:00:58.361Z,79.00
2018-03-31T01:03:26.209Z,78.90
2018-03-31T01:05:53.973Z,78.80
2018-03-31T01:08:21.737Z,78.70
2018-03-31T01:10:49.485Z,78.50
2018-03-31T01:13:17.270Z,78.50
2018-03-31T01:15:45.025Z,79.20
2018-03-31T01:18:12.773Z,79.00
2018-03-31T01:20:40.679Z,79.00
2018-03-31T01:23:08.432Z,79.10
2018-03-31T01:25:36.199Z,79.10
2018-03-31T01:28:03.954Z,79.00
2018-03-31T01:30:31.789Z,79.30
2018-03-31T01:33:00.299Z,79.60
2018-03-31T01:35:28.052Z,79.60
2018-03-31T01:37:55.811Z,79.40
2018-03-31T01:40:23.561Z,79.40
2018-03-31T01:42:51.353Z,79.20
2018-03-31T01:45:19.227Z,79.40
2018-03-31T01:47:46.974Z,79.90
2018-03-31T01:50:14.756Z,79.90
2018-03-31T01:52:42.616Z,79.50
2018-03-31T01:55:10.370Z,80.10
2018-03-31T01:57:38.140Z,80.10
2018-03-31T02:00:05.901Z,80.10
2018-03-31T02:02:33.669Z,80.30
2018-03-31T02:05:01.433Z,80.40
2018-03-31T02:07:29.303Z,80.30
2018-03-31T02:09:57.053Z,80.20
2018-03-31T02:12:24.811Z,80.40
2018-03-31T02:14:52.565Z,80.40
2018-03-31T02:17:20.353Z,80.60
2018-03-31T02:19:48.112Z,80.80
2018-03-31T02:22:15.876Z,81.10
2018-03-31T02:24:43.654Z,80.80
2018-03-31T02:27:11.516Z,81.00
2018-03-31T02:29:39.270Z,81.20
2018-03-31T02:32:07.017Z,81.40
2018-03-31T02:34:34.806Z,81.10
2018-03-31T02:37:02.559Z,82.00
2018-03-31T02:39:30.436Z,81.40
2018-03-31T02:41:58.199Z,81.40
2018-03-31T02:44:26.060Z,82.30
2018-03-31T02:46:53.925Z,83.70
2018-03-31T02:49:21.675Z,84.60
2018-03-31T02:51:49.448Z,85.80
2018-03-31T02:54:17.215Z,85.90
2018-03-31T02:56:44.974Z,88.30
2018-03-31T02:59:12.725Z,89.50
2018-03-31T03:01:40.477Z,90.20
2018-03-31T03:04:08.225Z,91.00
2018-03-31T03:06:36.859Z,90.90
2018-03-31T03:09:04.729Z,90.90
2018-03-31T03:11:32.487Z,91.90
2018-03-31T03:14:00.341Z,91.80
2018-03-31T03:16:28.707Z,92.30
2018-03-31T03:18:56.288Z,92.30
2018-03-31T03:21:23.789Z,91.90
2018-03-31T03:23:51.311Z,91.10
2018-03-31T03:26:18.827Z,91.50
2018-03-31T03:28:46.413Z,92.00
2018-03-31T03:31:14.696Z,91.50
2018-03-31T03:33:42.209Z,91.50
2018-03-31T03:36:09.708Z,92.20
2018-03-31T03:38:37.242Z,92.30
2018-03-31T03:41:04.826Z,92.40
2018-03-31T03:43:32.332Z,92.80
2018-03-31T03:45:59.942Z,92.00
2018-03-31T03:48:27.459Z,92.10
2018-03-31T03:50:54.974Z,92.00
2018-03-31T03:53:22.525Z,91.20
2018-03-31T03:55:50.041Z,91.60
2018-03-31T03:58:17.565Z,92.10
2018-03-31T04:00:45.076Z,92.70
2018-03-31T04:03:13.367Z,92.80
2018-03-31T04:05:41.647Z,93.20
2018-03-31T04:08:09.157Z,93.20
2018-03-31T04:10:36.693Z,93.10
2018-03-31T04:13:04.202Z,93.00
2018-03-31T04:15:32.490Z,92.80
2018-03-31T04:18:00.761Z,93.00
2018-03-31T04:20:28.283Z,93.00
2018-03-31T04:22:55.802Z,92.70
2018-03-31T04:25:23.335Z,92.50
2018-03-31T04:27:51.612Z,92.80
2018-03-31T04:30:19.178Z,92.80
2018-03-31T04:32:46.703Z,92.60
2018-03-31T04:35:14.285Z,92.90
2018-03-31T04:37:41.800Z,93.30
2018-03-31T04:40:09.309Z,93.10
2018-03-31T04:42:36.821Z,92.80
2018-03-31T04:45:05.850Z,92.60
2018-03-31T04:47:34.225Z,92.30
2018-03-31T04:50:02.519Z,93.30
2018-03-31T04:52:30.030Z,93.30
2018-03-31T04:54:57.550Z,93.60
2018-03-31T04:57:25.066Z,93.40
2018-03-31T04:59:53.356Z,93.70
2018-03-31T05:02:21.634Z,93.80
2018-03-31T05:04:49.159Z,93.80
2018-03-31T05:07:16.665Z,93.60
2018-03-31T05:09:44.190Z,93.50
2018-03-31T05:12:12.471Z,93.30
2018-03-31T05:14:40.845Z,93.30
2018-03-31T05:17:09.234Z,93.40
2018-03-31T05:19:37.508Z,93.80
2018-03-31T05:22:05.067Z,93.80
2018-03-31T05:24:33.356Z,94.20
2018-03-31T05:27:00.890Z,94.20
2018-03-31T05:29:28.418Z,94.70
2018-03-31T05:31:56.009Z,94.10
2018-03-31T05:34:24.286Z,94.10
2018-03-31T05:36:52.587Z,94.20
2018-03-31T05:39:20.084Z,94.20
2018-03-31T05:41:49.104Z,94.10
2018-03-31T05:44:17.389Z,94.20
2018-03-31T05:46:45.673Z,94.30
2018-03-31T05:49:13.181Z,94.30
2018-03-31T05:51:40.703Z,94.30
2018-03-31T05:54:08.243Z,94.50
2018-03-31T05:56:36.611Z,94.60
2018-03-31T05:59:04.888Z,95.00
2018-03-31T06:01:33.173Z,95.20
2018-03-31T06:04:00.686Z,95.20
2018-03-31T06:06:28.193Z,94.80
2018-03-31T06:08:55.796Z,95.00
2018-03-31T06:11:24.121Z,95.00
2018-03-31T06:13:52.561Z,95.00
2018-03-31T06:16:20.079Z,95.00
2018-03-31T06:18:47.621Z,94.80
2018-03-31T06:21:15.213Z,95.00
2018-03-31T06:23:42.724Z,93.90
2018-03-31T06:26:11.122Z,94.80
2018-03-31T06:28:39.394Z,94.60
2018-03-31T06:31:06.999Z,94.60
2018-03-31T06:33:34.610Z,94.40
2018-03-31T06:36:02.130Z,94.40
2018-03-31T06:38:29.721Z,94.50
2018-03-31T06:40:57.282Z,94.40
2018-03-31T06:43:25.576Z,94.30
2018-03-31T06:45:53.118Z,94.30
2018-03-31T06:48:21.385Z,94.00
2018-03-31T06:50:49.665Z,94.10
2018-03-31T06:53:17.936Z,94.10
2018-03-31T06:55:46.227Z,93.90
2018-03-31T06:58:13.738Z,93.90
2018-03-31T07:00:41.282Z,93.90
2018-03-31T07:03:08.795Z,93.70
2018-03-31T07:05:36.357Z,93.60
2018-03-31T07:08:03.881Z,93.50
2018-03-31T07:10:31.481Z,93.50
2018-03-31T07:12:58.984Z,93.50
2018-03-31T07:15:28.023Z,93.10
2018-03-31T07:17:56.285Z,93.10
2018-03-31T07:20:24.570Z,93.10
2018-03-31T07:22:52.937Z,93.20
2018-03-31T07:25:21.215Z,93.10
2018-03-31T07:27:49.607Z,93.10
2018-03-31T07:30:17.153Z,93.10
2018-03-31T07:32:45.531Z,93.10
2018-03-31T07:35:13.914Z,93.00
2018-03-31T07:37:42.202Z,93.10
2018-03-31T07:40:09.746Z,93.10
2018-03-31T07:42:38.222Z,93.30
2018-03-31T07:45:06.597Z,93.30
2018-03-31T07:47:34.873Z,93.10
2018-03-31T07:50:03.193Z,93.00
2018-03-31T07:52:30.686Z,93.00
2018-03-31T07:54:58.185Z,93.00
2018-03-31T07:57:25.696Z,92.90
2018-03-31T07:59:53.291Z,92.80
2018-03-31T08:02:20.810Z,92.60
2018-03-31T08:04:48.400Z,92.60
2018-03-31T08:07:16.717Z,92.20
2018-03-31T08:09:44.248Z,92.20
2018-03-31T08:12:11.801Z,92.50
2018-03-31T08:14:40.179Z,92.20
2018-03-31T08:17:07.681Z,92.20
2018-03-31T08:19:35.286Z,92.40
2018-03-31T08:22:03.580Z,91.70
2018-03-31T08:24:31.142Z,91.70
2018-03-31T08:26:58.666Z,91.60
2018-03-31T08:29:26.189Z,91.50
2018-03-31T08:31:53.706Z,91.40
2018-03-31T08:34:22.069Z,91.30
2018-03-31T08:36:50.346Z,91.00
2018-03-31T08:39:18.688Z,90.50
2018-03-31T08:41:46.243Z,90.50
2018-03-31T08:44:13.714Z,90.70
2018-03-31T08:46:41.301Z,90.40
2018-03-31T08:49:09.671Z,90.90
2018-03-31T08:51:37.250Z,90.90
2018-03-31T08:54:05.613Z,90.20
2018-03-31T08:56:33.976Z,90.00
2018-03-31T08:59:02.265Z,90.20
2018-03-31T09:01:30.552Z,90.30
2018-03-31T09:03:58.086Z,90.30
2018-03-31T09:06:25.581Z,90.00
2018-03-31T09:08:53.113Z,89.60
2018-03-31T09:11:21.493Z,88.50
2018-03-31T09:13:49.868Z,88.60
2018-03-31T09:16:18.241Z,87.80
2018-03-31T09:18:46.633Z,87.80
2018-03-31T09:21:14.905Z,88.40
2018-03-31T09:23:43.286Z,89.60
2018-03-31T09:26:10.846Z,88.80
2018-03-31T09:28:38.370Z,88.90
2018-03-31T09:31:05.887Z,89.70
2018-03-31T09:33:33.398Z,88.30
2018-03-31T09:36:00.911Z,87.70
2018-03-31T09:38:28.434Z,87.20
2018-03-31T09:40:56.805Z,86.90
2018-03-31T09:43:25.153Z,87.60
2018-03-31T09:45:52.676Z,87.60
2018-03-31T09:48:20.196Z,87.90
2018-03-31T09:50:48.583Z,89.10
2018-03-31T09:53:16.175Z,88.40
2018-03-31T09:55:43.734Z,88.60
2018-03-31T09:58:11.214Z,87.80
2018-03-31T10:00:38.739Z,88.30
2018-03-31T10:03:06.259Z,87.90
2018-03-31T10:05:34.532Z,88.00
2018-03-31T10:08:02.804Z,87.80
2018-03-31T10:10:31.110Z,88.10
2018-03-31T10:12:58.651Z,88.10
2018-03-31T10:15:26.917Z,87.20
2018-03-31T10:17:55.201Z,88.00
2018-03-31T10:20:23.576Z,87.80
2018-03-31T10:22:51.872Z,88.00
2018-03-31T10:25:19.379Z,88.00
2018-03-31T10:27:46.978Z,87.90
2018-03-31T10:30:15.245Z,85.60
2018-03-31T10:32:43.626Z,85.20
2018-03-31T10:35:11.915Z,85.50
2018-03-31T10:37:40.192Z,86.30
2018-03-31T10:40:07.698Z,86.30
2018-03-31T10:42:35.229Z,86.50
2018-03-31T10:45:02.754Z,85.40
2018-03-31T10:47:31.188Z,84.50
2018-03-31T10:49:59.419Z,84.40
2018-03-31T10:52:26.916Z,84.40
2018-03-31T10:54:54.517Z,85.20
2018-03-31T10:57:22.788Z,85.70
2018-03-31T10:59:51.070Z,86.00
2018-03-31T11:02:19.344Z,85.90
2018-03-31T11:04:47.613Z,86.20
2018-03-31T11:07:15.891Z,86.10
2018-03-31T11:09:44.171Z,87.20
2018-03-31T11:12:12.441Z,87.00
2018-03-31T11:14:40.830Z,87.60
2018-03-31T11:17:09.102Z,86.80
2018-03-31T11:19:37.385Z,86.50
2018-03-31T11:22:05.658Z,87.30
2018-03-31T11:24:33.213Z,87.30
2018-03-31T11:27:01.526Z,87.50
2018-03-31T11:29:29.020Z,87.50
2018-03-31T11:31:56.534Z,87.20
2018-03-31T11:34:24.070Z,86.80
2018-03-31T11:36:52.444Z,86.70
2018-03-31T11:39:20.728Z,86.50
2018-03-31T11:41:48.243Z,86.50
2018-03-31T11:44:15.754Z,86.80
2018-03-31T11:46:43.433Z,86.80
2018-03-31T11:49:10.945Z,87.20
2018-03-31T11:51:39.228Z,88.50
2018-03-31T11:54:07.601Z,89.00
2018-03-31T11:56:35.986Z,88.30
2018-03-31T11:59:04.353Z,90.10
2018-03-31T12:01:32.621Z,89.80
2018-03-31T12:04:00.200Z,89.80
2018-03-31T12:06:27.639Z,89.80
2018-03-31T12:08:56.030Z,90.00
2018-03-31T12:11:24.406Z,89.50
2018-03-31T12:13:52.687Z,89.20
2018-03-31T12:16:20.242Z,89.20
2018-03-31T12:18:48.521Z,89.60
2018-03-31T12:21:16.894Z,89.50
2018-03-31T12:23:45.172Z,89.30
2018-03-31T12:26:13.560Z,88.00
2018-03-31T12:28:41.100Z,88.00
2018-03-31T12:31:09.374Z,88.80
2018-03-31T12:33:38.619Z,88.70
2018-03-31T12:36:06.253Z,88.70
2018-03-31T12:38:34.513Z,89.50
2018-03-31T12:41:02.797Z,89.20
2018-03-31T12:43:31.161Z,89.70
2018-03-31T12:45:59.439Z,89.40
2018-03-31T12:48:27.717Z,88.20
2018-03-31T12:50:56.002Z,88.90
2018-03-31T12:53:23.525Z,88.90
2018-03-31T12:55:51.013Z,88.30
2018-03-31T12:58:18.539Z,88.50
2018-03-31T13:00:46.119Z,88.20
2018-03-31T13:03:14.413Z,89.90
2018-03-31T13:05:41.945Z,89.90
2018-03-31T13:08:09.517Z,90.10
2018-03-31T13:10:37.796Z,89.70
2018-03-31T13:13:06.061Z,90.00
2018-03-31T13:15:34.446Z,90.00
2018-03-31T13:18:02.734Z,90.60
2018-03-31T13:20:30.280Z,90.60
2018-03-31T13:22:58.639Z,90.90
2018-03-31T13:25:26.144Z,90.90
2018-03-31T13:27:53.683Z,91.10
2018-03-31T13:30:21.950Z,90.60
2018-03-31T13:32:51.261Z,90.80
2018-03-31T13:35:18.777Z,90.80
2018-03-31T13:37:46.300Z,90.50
2018-03-31T13:40:13.924Z,90.80
2018-03-31T13:42:42.207Z,91.30
2018-03-31T13:45:09.720Z,91.30
2018-03-31T13:47:37.317Z,91.30
2018-03-31T13:50:05.832Z,90.60
2018-03-31T13:52:34.070Z,90.70
2018-03-31T13:55:02.467Z,90.50
2018-03-31T13:57:30.021Z,90.50
2018-03-31T13:59:57.524Z,90.90
2018-03-31T14:02:25.048Z,90.40
2018-03-31T14:04:52.562Z,90.40
2018-03-31T14:07:20.141Z,90.70
2018-03-31T14:09:48.424Z,90.60
2018-03-31T14:12:16.689Z,90.40
2018-03-31T14:14:45.075Z,90.10
2018-03-31T14:17:13.345Z,89.70
2018-03-31T14:19:41.632Z,90.00
2018-03-31T14:22:09.143Z,90.00
2018-03-31T14:24:36.655Z,90.20
2018-03-31T14:27:04.203Z,90.10
2018-03-31T14:29:32.565Z,90.40
2018-03-31T14:32:00.850Z,90.60
2018-03-31T14:34:29.125Z,90.70
2018-03-31T14:36:57.416Z,90.80
2018-03-31T14:39:24.961Z,90.80
2018-03-31T14:41:53.333Z,91.20
2018-03-31T14:44:21.722Z,91.00
2018-03-31T14:46:49.239Z,91.00
2018-03-31T14:49:16.771Z,90.90
2018-03-31T14:51:44.290Z,91.10
2018-03-31T14:54:12.659Z,91.10
2018-03-31T14:56:40.941Z,90.90
2018-03-31T14:59:09.210Z,91.00
2018-03-31T15:01:37.513Z,91.00
2018-03-31T15:04:05.874Z,91.10
2018-03-31T15:06:33.390Z,91.10
2018-03-31T15:09:00.904Z,91.30
2018-03-31T15:11:28.441Z,91.60
2018-03-31T15:13:56.733Z,92.00
2018-03-31T15:16:24.319Z,92.00
2018-03-31T15:18:51.810Z,92.00
2018-03-31T15:21:20.109Z,91.80
2018-03-31T15:23:48.382Z,91.70
2018-03-31T15:26:16.750Z,92.00
2018-03-31T15:28:45.039Z,92.10
2018-03-31T15:31:13.414Z,92.50
2018-03-31T15:33:41.691Z,92.40
2018-03-31T15:36:10.064Z,92.50
2018-03-31T15:38:38.350Z,92.40
2018-03-31T15:41:06.735Z,92.60
2018-03-31T15:43:34.237Z,92.60
2018-03-31T15:46:01.753Z,92.50
2018-03-31T15:48:29.272Z,92.60
2018-03-31T15:50:56.854Z,92.70
2018-03-31T15:53:25.135Z,93.40
2018-03-31T15:55:53.426Z,93.10
2018-03-31T15:58:20.975Z,93.10
2018-03-31T16:00:48.485Z,93.00
2018-03-31T16:03:16.009Z,93.10
2018-03-31T16:05:43.547Z,93.50
2018-03-31T16:08:11.913Z,93.00
2018-03-31T16:10:40.307Z,93.10
2018-03-31T16:13:07.863Z,93.10
2018-03-31T16:15:36.136Z,92.60
2018-03-31T16:18:03.651Z,92.60
2018-03-31T16:20:31.252Z,92.50
2018-03-31T16:22:59.626Z,91.90
2018-03-31T16:25:27.935Z,92.20
2018-03-31T16:27:55.458Z,92.20
2018-03-31T16:30:23.734Z,91.90
2018-03-31T16:32:52.013Z,91.90
2018-03-31T16:35:20.294Z,92.00
2018-03-31T16:37:47.835Z,92.00
2018-03-31T16:40:16.157Z,91.90
2018-03-31T16:42:43.666Z,91.90
2018-03-31T16:45:11.937Z,91.90
2018-03-31T16:47:40.230Z,91.60
2018-03-31T16:50:08.505Z,91.90
2018-03-31T16:52:36.794Z,92.20
2018-03-31T16:55:04.305Z,92.10
2018-03-31T16:57:31.814Z,92.20
2018-03-31T16:59:59.329Z,92.20
2018-03-31T17:02:26.845Z,92.20
2018-03-31T17:04:54.370Z,92.20
2018-03-31T17:07:22.654Z,92.40
2018-03-31T17:09:50.190Z,92.40
2018-03-31T17:12:17.786Z,92.40
2018-03-31T17:14:45.317Z,92.30
2018-03-31T17:17:13.607Z,92.60
2018-03-31T17:19:41.109Z,92.60
2018-03-31T17:22:08.718Z,92.70
2018-03-31T17:24:36.283Z,92.70
2018-03-31T17:27:03.803Z,92.70
2018-03-31T17:29:31.319Z,92.70
2018-03-31T17:31:58.904Z,92.70
2018-03-31T17:34:27.119Z,92.70
2018-03-31T17:36:57.900Z,92.70
2018-03-31T17:39:25.850Z,92.70
2018-03-31T17:41:53.357Z,92.90
2018-03-31T17:44:21.041Z,92.90
2018-03-31T17:46:49.427Z,93.00
2018-03-31T17:49:17.001Z,93.30
2018-03-31T17:51:44.532Z,93.10
2018-03-31T17:54:12.925Z,93.20
2018-03-31T17:56:41.289Z,93.30
2018-03-31T17:59:09.569Z,93.30
2018-03-31T18:01:37.847Z,93.20
2018-03-31T18:04:06.129Z,93.70
2018-03-31T18:06:34.398Z,93.70
2018-03-31T18:09:02.781Z,93.40
2018-03-31T18:11:30.298Z,93.40
2018-03-31T18:13:57.898Z,93.50
2018-03-31T18:16:25.450Z,93.60
2018-03-31T18:18:53.725Z,93.50
2018-03-31T18:21:22.009Z,93.60
2018-03-31T18:23:49.541Z,93.60
2018-03-31T18:26:17.051Z,93.70
2018-03-31T18:28:44.553Z,93.90
2018-03-31T18:31:12.135Z,94.00
2018-03-31T18:33:40.850Z,93.90
2018-03-31T18:36:08.382Z,93.90
2018-03-31T18:38:36.662Z,93.70
2018-03-31T18:41:04.249Z,93.70
2018-03-31T18:43:31.880Z,93.70
2018-03-31T18:45:59.391Z,93.80
2018-03-31T18:48:26.927Z,93.90
2018-03-31T18:50:55.257Z,93.80
2018-03-31T18:53:22.768Z,93.60
2018-03-31T18:55:50.287Z,93.60
2018-03-31T18:58:17.841Z,93.40
2018-03-31T19:00:45.359Z,93.60
2018-03-31T19:03:12.873Z,93.50
2018-03-31T19:05:40.508Z,93.40
2018-03-31T19:08:08.801Z,93.30
2018-03-31T19:10:36.314Z,93.30
2018-03-31T19:13:03.917Z,93.20
2018-03-31T19:15:31.502Z,93.30
2018-03-31T19:17:58.988Z,93.50
2018-03-31T19:20:26.591Z,93.10
2018-03-31T19:22:54.178Z,93.10
2018-03-31T19:25:27.309Z,93.10
2018-03-31T19:27:55.586Z,93.10
2018-03-31T19:33:17.890Z,93.10
2018-03-31T19:35:51.027Z,93.20
2018-03-31T19:38:18.539Z,93.10
2018-03-31T19:40:46.049Z,93.20
2018-03-31T19:43:14.342Z,93.30
2018-03-31T19:45:42.723Z,93.30
2018-03-31T19:48:10.315Z,93.30
2018-03-31T19:50:37.809Z,93.30
2018-03-31T19:53:05.326Z,93.30
2018-03-31T19:55:32.834Z,93.20
2018-03-31T19:58:01.235Z,93.30
2018-03-31T20:00:28.733Z,93.30
2018-03-31T20:02:56.279Z,93.20
2018-03-31T20:05:23.772Z,93.20
2018-03-31T20:07:51.299Z,93.40
2018-03-31T20:10:18.853Z,93.20
2018-03-31T20:12:47.098Z,93.40
2018-03-31T20:15:14.655Z,93.40
2018-03-31T20:17:42.173Z,93.40
2018-03-31T20:20:09.691Z,93.40
2018-03-31T20:22:37.202Z,93.40
2018-03-31T20:25:04.719Z,93.40
2018-03-31T20:27:32.221Z,93.60
2018-03-31T20:30:00.500Z,93.40
2018-03-31T20:32:28.784Z,93.20
2018-03-31T20:34:57.075Z,93.30
2018-03-31T20:37:24.573Z,93.20
2018-03-31T20:39:52.085Z,93.20
2018-03-31T20:42:19.639Z,93.40
2018-03-31T20:44:47.917Z,93.40
2018-03-31T20:47:15.422Z,93.40
2018-03-31T20:49:42.938Z,93.40
2018-03-31T20:52:10.492Z,93.50
2018-03-31T20:54:38.038Z,93.50
2018-03-31T20:57:06.427Z,93.60
2018-03-31T20:59:33.938Z,93.60
2018-03-31T21:02:01.463Z,93.60
2018-03-31T21:04:28.966Z,93.60
2018-03-31T21:06:56.558Z,93.50
2018-03-31T21:09:24.118Z,93.40
2018-03-31T21:11:52.418Z,93.60
2018-03-31T21:14:19.942Z,93.60
2018-03-31T21:16:48.326Z,93.70
2018-03-31T21:19:16.707Z,93.80
2018-03-31T21:21:44.279Z,93.80
2018-03-31T21:24:11.791Z,93.70
2018-03-31T21:26:39.372Z,93.80
2018-03-31T21:29:07.662Z,93.80
2018-03-31T21:31:35.169Z,93.80
2018-03-31T21:34:02.682Z,93.80
2018-03-31T21:36:30.201Z,93.90
2018-03-31T21:38:57.726Z,94.00
2018-03-31T21:41:25.381Z,94.10
2018-03-31T21:43:52.881Z,94.10
2018-03-31T21:46:20.805Z,94.20
2018-03-31T21:48:48.285Z,94.60
2018-03-31T21:51:15.891Z,94.10
2018-03-31T21:53:44.267Z,94.10
2018-03-31T21:56:12.557Z,94.00
2018-03-31T21:58:40.053Z,94.00
2018-03-31T22:01:07.573Z,93.90
2018-03-31T22:03:35.151Z,93.90
2018-03-31T22:06:02.675Z,93.90
2018-03-31T22:08:30.954Z,93.80
2018-03-31T22:10:58.475Z,93.80
2018-03-31T22:13:31.684Z,93.90
2018-03-31T22:15:59.972Z,94.00
2018-03-31T22:18:28.256Z,93.90
2018-03-31T22:20:55.769Z,93.90
2018-03-31T22:23:23.273Z,94.00
2018-03-31T22:25:50.789Z,94.00
2018-03-31T22:28:18.293Z,93.90
2018-03-31T22:30:45.832Z,93.90
2018-03-31T22:33:14.125Z,93.90
2018-03-31T22:35:41.634Z,93.90
2018-03-31T22:38:09.231Z,94.00
2018-03-31T22:40:36.738Z,94.10
2018-03-31T22:43:04.265Z,94.00
2018-03-31T22:45:31.770Z,94.00
2018-03-31T22:47:59.286Z,94.00
2018-03-31T22:50:26.789Z,94.10
2018-03-31T22:52:54.306Z,94.00
2018-03-31T22:55:21.808Z,93.90
2018-03-31T22:57:49.385Z,93.80
2018-03-31T23:00:17.661Z,93.90
2018-03-31T23:02:45.931Z,93.80
2018-03-31T23:05:13.714Z,93.80
2018-03-31T23:07:41.463Z,93.80
2018-03-31T23:10:10.215Z,93.80
2018-03-31T23:12:38.831Z,93.80
2018-03-31T23:15:06.602Z,93.80
2018-03-31T23:17:34.365Z,93.80
2018-03-31T23:20:02.126Z,93.90
2018-03-31T23:22:29.879Z,93.80
2018-03-31T23:24:57.632Z,93.90
2018-03-31T23:27:25.423Z,94.00
2018-03-31T23:29:53.282Z,93.90
2018-03-31T23:32:21.047Z,93.80
2018-03-31T23:34:48.808Z,93.80
2018-03-31T23:37:17.533Z,93.60
2018-03-31T23:39:45.056Z,93.60
2018-03-31T23:42:13.424Z,93.70
2018-03-31T23:44:41.712Z,93.70
2018-03-31T23:47:09.305Z,93.70
2018-03-31T23:49:36.795Z,93.70
2018-03-31T23:52:04.381Z,93.80
2018-03-31T23:54:32.758Z,93.90
2018-03-31T23:57:01.142Z,93.70
2018-03-31T23:59:29.513Z,93.70
